Time;durP1;ratioP1;P1;durP2;ratioP2;P2;SDS_P1;SDS_P2;PMS_P1;PMS_P2;Temp;Humidity;BMP_temperature;BMP_pressure;BME280_temperature;BME280_humidity;BME280_pressure;Samples;Min_cycle;Max_cycle;Signal;HPM_P1;HPM_P2
2021/04/29 00:01:08;;;;;;;10.72;7.10;;;;;;;9.55;95.41;101090.48;1786843;80;21140;-50
2021/04/29 00:03:36;;;;;;;11.45;7.10;;;;;;;9.57;95.55;101077.94;1786735;80;21699;-50
2021/04/29 00:06:05;;;;;;;13.65;7.25;;;;;;;9.55;95.66;101079.78;1786817;80;21040;-50
2021/04/29 00:08:33;;;;;;;11.55;8.00;;;;;;;9.55;95.66;101085.13;1786778;80;21045;-50
2021/04/29 00:11:03;;;;;;;12.43;6.92;;;;;;;9.53;95.65;101082.52;1786820;80;21148;-50
2021/04/29 00:13:30;;;;;;;9.68;7.15;;;;;;;9.53;95.77;101078.95;1786988;80;22040;-50
2021/04/29 00:15:58;;;;;;;11.70;6.35;;;;;;;9.53;95.68;101080.28;1786832;80;21431;-51
2021/04/29 00:18:26;;;;;;;13.65;7.37;;;;;;;9.54;95.88;101072.67;1786830;80;21165;-51
2021/04/29 00:20:56;;;;;;;13.80;7.15;;;;;;;9.54;95.76;101069.99;1786747;80;21148;-50
2021/04/29 00:23:25;;;;;;;13.35;7.17;;;;;;;9.53;95.75;101062.88;1786792;79;21125;-50
2021/04/29 00:25:53;;;;;;;11.93;7.00;;;;;;;9.52;95.61;101070.50;1797880;79;21497;-50
2021/04/29 00:28:21;;;;;;;10.18;6.62;;;;;;;9.52;95.73;101074.52;1767015;81;22312;-50
2021/04/29 00:30:49;;;;;;;12.80;6.87;;;;;;;9.52;95.73;101061.13;1798210;79;21556;-50
2021/04/29 00:33:17;;;;;;;12.40;7.12;;;;;;;9.51;95.86;101062.94;1798576;79;21106;-50
2021/04/29 00:35:45;;;;;;;10.65;7.35;;;;;;;9.49;95.78;101056.72;1798474;79;21034;-50
2021/04/29 00:38:13;;;;;;;13.48;7.58;;;;;;;9.50;95.96;101061.63;1798592;79;21046;-50
2021/04/29 00:40:41;;;;;;;12.40;6.78;;;;;;;9.51;95.96;101074.09;1798428;79;21356;-50
2021/04/29 00:43:11;;;;;;;13.53;7.72;;;;;;;9.50;95.87;101081.70;1798478;79;21129;-50
2021/04/29 00:45:41;;;;;;;11.33;6.67;;;;;;;9.49;95.88;101077.27;1798595;79;21557;-49
2021/04/29 00:48:08;;;;;;;9.18;6.78;;;;;;;9.48;95.93;101075.03;1798628;79;21110;-49
2021/04/29 00:50:37;;;;;;;11.55;6.97;;;;;;;9.48;95.88;101071.02;1798693;79;21724;-49
2021/04/29 00:53:05;;;;;;;12.25;7.60;;;;;;;9.49;95.74;101067.42;1798517;79;21189;-50
2021/04/29 00:55:33;;;;;;;13.83;6.55;;;;;;;9.50;95.81;101076.34;1798545;79;21173;-50
2021/04/29 00:58:01;;;;;;;9.45;6.70;;;;;;;9.50;95.68;101071.86;1773601;79;21139;-50
2021/04/29 01:00:30;;;;;;;9.43;6.75;;;;;;;9.51;95.71;101059.38;1796834;79;21117;-49
2021/04/29 01:03:14;;;;;;;9.85;6.37;;;;;;;9.51;95.62;101068.30;1796742;79;21111;-49
2021/04/29 01:05:52;;;;;;;12.63;7.28;;;;;;;9.51;95.73;101067.40;1750309;81;21391;-50
2021/04/29 01:08:42;;;;;;;12.65;7.10;;;;;;;9.50;95.82;101065.64;1796742;79;21141;-50
2021/04/29 01:11:13;;;;;;;11.28;6.80;;;;;;;9.49;95.89;101074.59;1765324;81;21570;-50
2021/04/29 01:13:44;;;;;;;12.23;7.08;;;;;;;9.46;95.98;101075.09;1796848;79;21138;-50
2021/04/29 01:16:12;;;;;;;15.13;7.10;;;;;;;9.43;96.07;101068.48;1765337;81;21120;-50
2021/04/29 01:18:40;;;;;;;12.82;7.20;;;;;;;9.44;96.15;101075.59;1776893;80;21681;-50
2021/04/29 01:21:14;;;;;;;12.33;7.67;;;;;;;9.43;96.32;101079.19;1765230;81;21129;-50
2021/04/29 01:24:03;;;;;;;11.33;7.60;;;;;;;9.44;96.46;101078.27;1770711;79;21486;-50
2021/04/29 01:26:45;;;;;;;11.95;7.40;;;;;;;9.44;96.41;101081.39;1765423;81;21132;-51
2021/04/29 01:29:20;;;;;;;11.90;7.60;;;;;;;9.43;96.43;101071.16;1796792;79;21054;-50
2021/04/29 01:31:48;;;;;;;13.03;7.47;;;;;;;9.43;96.51;101070.27;1780256;80;21381;-51
2021/04/29 01:34:18;;;;;;;12.28;8.10;;;;;;;9.43;96.56;101065.81;1765272;81;21077;-50
2021/04/29 01:36:47;;;;;;;12.70;8.33;;;;;;;9.43;96.42;101065.81;1796851;79;21074;-50
2021/04/29 01:39:15;;;;;;;13.40;8.18;;;;;;;9.41;96.50;101067.64;1765341;81;21081;-51
2021/04/29 01:41:49;;;;;;;10.88;7.08;;;;;;;9.40;96.46;101062.32;1796897;79;21173;-50
2021/04/29 01:44:18;;;;;;;11.90;7.08;;;;;;;9.41;96.61;101064.08;1765274;81;21364;-49
2021/04/29 01:46:47;;;;;;;16.93;7.47;;;;;;;9.41;96.45;101056.94;1796774;79;21141;-49
2021/04/29 01:49:16;;;;;;;11.78;6.33;;;;;;;9.44;96.48;101058.64;1765320;81;21062;-49
2021/04/29 01:51:44;;;;;;;15.23;7.90;;;;;;;9.45;96.55;101061.30;1796774;79;21066;-51
2021/04/29 01:54:12;;;;;;;12.80;7.25;;;;;;;9.47;96.60;101059.90;1765396;81;21045;-52
2021/04/29 01:56:41;;;;;;;13.80;7.12;;;;;;;9.49;96.50;101062.07;1773928;80;21907;-51
2021/04/29 01:59:09;;;;;;;15.72;6.65;;;;;;;9.50;96.35;101058.95;1761580;80;21125;-50
2021/04/29 02:01:42;;;;;;;13.43;6.92;;;;;;;9.50;96.26;101058.95;1761527;81;21147;-49
2021/04/29 02:04:11;;;;;;;16.57;6.95;;;;;;;9.51;96.16;101061.60;1761768;81;21556;-50
2021/04/29 02:06:40;;;;;;;21.52;7.15;;;;;;;9.51;96.08;101068.73;1761763;81;21589;-50
2021/04/29 02:09:09;;;;;;;15.45;7.47;;;;;;;9.50;95.86;101072.34;1761770;80;22032;-50
2021/04/29 02:11:57;;;;;;;14.20;7.10;;;;;;;9.50;95.81;101071.86;1761621;80;21068;-50
2021/04/29 02:14:34;;;;;;;12.43;6.42;;;;;;;9.49;95.90;101067.42;1792575;79;21462;-50
2021/04/29 02:17:06;;;;;;;13.75;7.03;;;;;;;9.50;96.03;101075.02;1754658;80;21072;-49
2021/04/29 02:19:33;;;;;;;10.38;7.25;;;;;;;9.47;96.30;101073.28;1776335;80;21132;-50
2021/04/29 02:22:01;;;;;;;11.95;6.87;;;;;;;9.45;96.59;101071.11;1776408;80;21672;-51
2021/04/29 02:24:32;;;;;;;10.13;6.85;;;;;;;9.43;97.03;101067.14;1776489;80;21576;-51
2021/04/29 02:27:00;;;;;;;11.18;7.28;;;;;;;9.43;97.26;101076.52;1787223;80;21151;-51
2021/04/29 02:29:28;;;;;;;13.70;7.22;;;;;;;9.40;97.62;101071.24;1787104;80;21111;-51
2021/04/29 02:31:55;;;;;;;13.10;7.50;;;;;;;9.38;97.73;101066.83;1787216;80;21083;-50
2021/04/29 02:34:23;;;;;;;12.70;7.40;;;;;;;9.36;98.08;101067.33;1787091;80;21343;-50
2021/04/29 02:36:51;;;;;;;13.20;7.55;;;;;;;9.38;98.20;101067.70;1786904;80;21126;-51
2021/04/29 02:39:19;;;;;;;11.93;7.12;;;;;;;9.36;98.57;101061.50;1787136;80;21107;-50
2021/04/29 02:41:46;;;;;;;12.88;7.62;;;;;;;9.35;98.66;101059.75;1787147;80;21064;-50
2021/04/29 02:44:14;;;;;;;10.48;6.47;;;;;;;9.36;98.85;101060.17;1787211;80;21056;-50
2021/04/29 02:46:42;;;;;;;11.85;6.90;;;;;;;9.35;98.94;101067.77;1787130;80;21380;-50
2021/04/29 02:49:11;;;;;;;10.28;6.67;;;;;;;9.34;98.85;101066.02;1787099;80;21163;-50
2021/04/29 02:51:39;;;;;;;12.40;7.25;;;;;;;9.34;98.89;101072.71;1787062;80;21140;-50
2021/04/29 02:54:07;;;;;;;16.10;6.78;;;;;;;9.34;98.95;101075.39;1787196;80;21491;-50
2021/04/29 02:56:40;;;;;;;12.80;6.05;;;;;;;9.34;98.95;101071.37;1786343;80;21142;-50
2021/04/29 02:59:08;;;;;;;9.45;6.35;;;;;;;9.36;98.94;101064.19;1780906;80;21374;-50
2021/04/29 03:01:36;;;;;;;10.88;6.75;;;;;;;9.37;99.10;101061.92;1762383;81;21141;-50
2021/04/29 03:04:04;;;;;;;18.98;7.22;;;;;;;9.39;99.11;101063.23;1773867;80;21080;-50
2021/04/29 03:06:32;;;;;;;11.38;6.37;;;;;;;9.37;99.16;101059.25;1762443;81;21051;-50
2021/04/29 03:08:59;;;;;;;15.98;6.35;;;;;;;9.38;99.30;101062.34;1793817;80;21118;-50
2021/04/29 03:11:28;;;;;;;13.40;5.85;;;;;;;9.38;99.22;101066.36;1762481;81;21363;-50
2021/04/29 03:13:56;;;;;;;11.03;6.30;;;;;;;9.36;99.19;101064.19;1773710;80;21071;-50
2021/04/29 03:16:24;;;;;;;13.40;5.95;;;;;;;9.36;99.19;101068.20;1762481;81;21065;-50
2021/04/29 03:18:52;;;;;;;10.70;6.55;;;;;;;9.39;99.36;101063.23;1793684;80;21058;-50
2021/04/29 03:21:20;;;;;;;11.90;6.42;;;;;;;9.39;99.33;101062.77;1762488;81;21100;-50
2021/04/29 03:23:47;;;;;;;10.40;6.40;;;;;;;9.37;99.37;101062.41;1773733;80;21781;-50
2021/04/29 03:26:15;;;;;;;11.83;6.30;;;;;;;9.35;99.48;101062.42;1758285;81;21054;-50
2021/04/29 03:28:43;;;;;;;8.88;6.00;;;;;;;9.35;99.66;101064.23;1770836;81;21055;-50
2021/04/29 03:31:10;;;;;;;12.13;6.60;;;;;;;9.35;99.63;101053.06;1756798;81;21110;-50
2021/04/29 03:33:38;;;;;;;10.40;6.75;;;;;;;9.33;99.56;101049.55;1770868;81;21123;-50
2021/04/29 03:36:07;;;;;;;10.75;6.05;;;;;;;9.34;99.57;101056.66;1756802;81;21386;-50
2021/04/29 03:38:34;;;;;;;11.08;6.15;;;;;;;9.37;99.67;101055.23;1776867;80;21062;-50
2021/04/29 03:41:02;;;;;;;11.18;6.22;;;;;;;9.38;99.65;101061.48;1756767;81;21077;-50
2021/04/29 03:43:29;;;;;;;10.88;6.25;;;;;;;9.37;99.88;101067.75;1776840;80;21150;-50
2021/04/29 03:45:57;;;;;;;9.15;5.70;;;;;;;9.37;99.97;101064.59;1777029;80;22333;-50
2021/04/29 03:48:25;;;;;;;14.25;7.05;;;;;;;9.36;100.00;101061.50;1756952;81;21224;-51
2021/04/29 03:50:53;;;;;;;14.07;6.42;;;;;;;9.41;100.00;101073.44;1776841;80;21167;-51
2021/04/29 03:53:20;;;;;;;10.32;6.55;;;;;;;9.45;100.00;101074.67;1756897;81;21141;-51
2021/04/29 03:55:48;;;;;;;12.00;6.28;;;;;;;9.49;100.00;101090.17;1776833;80;21154;-51
2021/04/29 03:58:16;;;;;;;14.68;6.60;;;;;;;9.53;100.00;101097.68;1771766;80;21112;-51
2021/04/29 04:00:43;;;;;;;12.07;7.28;;;;;;;9.56;100.00;101098.49;1770881;81;21416;-51
2021/04/29 04:03:11;;;;;;;10.48;6.20;;;;;;;9.62;100.00;101107.28;1770751;80;21133;-50
2021/04/29 04:05:39;;;;;;;12.03;6.28;;;;;;;9.66;100.00;101110.30;1770902;81;21144;-50
2021/04/29 04:08:06;;;;;;;10.55;6.67;;;;;;;9.67;100.00;101111.61;1770800;81;21105;-50
2021/04/29 04:10:34;;;;;;;12.25;6.70;;;;;;;9.68;99.94;101109.35;1770893;81;21040;-50
2021/04/29 04:13:02;;;;;;;10.93;6.00;;;;;;;9.72;100.00;101104.33;1770765;81;21189;-50
2021/04/29 04:15:30;;;;;;;9.73;6.58;;;;;;;9.77;99.85;101107.34;1770954;81;21547;-50
2021/04/29 04:17:57;;;;;;;12.13;6.55;;;;;;;9.76;99.71;101110.50;1770809;80;21175;-50
2021/04/29 04:20:25;;;;;;;13.68;6.35;;;;;;;9.77;99.67;101116.72;1770698;81;21072;-50
2021/04/29 04:22:53;;;;;;;12.88;7.35;;;;;;;9.79;99.71;101119.78;1770646;81;21108;-50
2021/04/29 04:25:22;;;;;;;12.82;7.55;;;;;;;9.83;99.61;101123.24;1770954;79;21362;-50
2021/04/29 04:27:49;;;;;;;15.40;7.30;;;;;;;9.87;99.60;101128.97;1770613;81;21135;-50
2021/04/29 04:30:19;;;;;;;19.12;8.78;;;;;;;9.94;99.36;101129.22;1770643;81;21163;-50
2021/04/29 04:32:46;;;;;;;20.72;8.50;;;;;;;9.99;99.09;101135.32;1770678;81;21060;-50
2021/04/29 04:35:14;;;;;;;22.93;10.03;;;;;;;10.06;98.86;101144.52;1770671;81;21075;-50
2021/04/29 04:37:42;;;;;;;23.45;10.48;;;;;;;10.07;98.40;101139.14;1770677;80;21362;-51
2021/04/29 04:40:10;;;;;;;22.98;10.70;;;;;;;10.12;98.21;101137.69;1770547;81;21147;-50
2021/04/29 04:42:38;;;;;;;26.05;9.70;;;;;;;10.16;97.95;101138.87;1770645;81;21155;-50
2021/04/29 04:45:07;;;;;;;20.37;9.40;;;;;;;10.21;97.80;101144.12;1770576;80;21056;-50
2021/04/29 04:47:35;;;;;;;14.20;7.08;;;;;;;10.23;97.65;101139.59;1770674;80;21139;-50
2021/04/29 04:50:05;;;;;;;11.50;6.90;;;;;;;10.30;97.67;101146.57;1770708;81;21689;-50
2021/04/29 04:52:33;;;;;;;10.72;6.45;;;;;;;10.36;97.25;101144.16;1770879;81;21116;-51
2021/04/29 04:55:00;;;;;;;11.55;6.47;;;;;;;10.41;97.00;101138.71;1770178;81;21199;-51
2021/04/29 04:57:28;;;;;;;12.70;5.75;;;;;;;10.46;96.87;101146.16;1773947;80;21170;-51
2021/04/29 04:59:55;;;;;;;11.43;6.87;;;;;;;10.54;96.56;101149.52;1756794;81;21041;-50
2021/04/29 05:02:23;;;;;;;15.50;6.40;;;;;;;10.62;96.43;101149.75;1770771;81;21327;-50
2021/04/29 05:04:51;;;;;;;10.80;6.35;;;;;;;10.72;96.10;101149.88;1756687;81;21101;-50
2021/04/29 05:07:20;;;;;;;11.78;6.97;;;;;;;10.84;95.81;101145.52;1770676;80;21143;-52
2021/04/29 05:09:48;;;;;;;12.10;7.50;;;;;;;10.93;95.23;101147.48;1756760;81;21149;-51
2021/04/29 05:12:15;;;;;;;12.90;6.87;;;;;;;10.97;94.65;101144.68;1770780;81;21039;-51
2021/04/29 05:14:43;;;;;;;12.05;6.30;;;;;;;11.04;94.13;101148.06;1756770;81;21366;-52
2021/04/29 05:17:11;;;;;;;10.30;6.25;;;;;;;11.10;93.55;101145.17;1776763;80;21120;-50
2021/04/29 05:19:39;;;;;;;9.65;5.95;;;;;;;11.15;92.91;101162.01;1756745;81;21120;-52
2021/04/29 05:22:07;;;;;;;11.38;6.35;;;;;;;11.20;92.04;101161.02;1770766;81;21104;-52
2021/04/29 05:24:35;;;;;;;10.58;6.42;;;;;;;11.21;91.58;101152.03;1756805;81;21065;-52
2021/04/29 05:27:03;;;;;;;9.43;4.75;;;;;;;11.21;91.10;101154.23;1776702;80;21700;-51
2021/04/29 05:29:32;;;;;;;10.00;5.00;;;;;;;11.22;91.09;101151.11;1776870;80;21143;-52
2021/04/29 05:31:59;;;;;;;11.35;6.30;;;;;;;11.25;91.08;101147.84;1756712;81;21117;-51
2021/04/29 05:34:27;;;;;;;10.75;6.00;;;;;;;11.30;91.02;101151.73;1776818;80;21043;-51
2021/04/29 05:36:54;;;;;;;11.83;6.17;;;;;;;11.36;90.93;101151.53;1756999;81;21774;-51
2021/04/29 05:39:22;;;;;;;12.07;5.85;;;;;;;11.41;90.89;101149.59;1771044;81;21454;-51
2021/04/29 05:41:49;;;;;;;10.88;5.90;;;;;;;11.48;90.54;101160.13;1756978;81;21522;-51
2021/04/29 05:44:16;;;;;;;13.53;5.28;;;;;;;11.44;89.98;101160.23;1776930;80;21198;-51
2021/04/29 05:46:44;;;;;;;10.63;5.67;;;;;;;11.42;90.10;101152.70;1777049;80;21139;-51
2021/04/29 05:49:13;;;;;;;14.63;6.10;;;;;;;11.44;90.04;101155.31;1756779;81;21109;-51
2021/04/29 05:51:40;;;;;;;15.88;7.08;;;;;;;11.44;89.88;101152.63;1776962;80;21362;-51
2021/04/29 05:54:08;;;;;;;13.00;6.72;;;;;;;11.43;90.20;101147.73;1764687;80;21164;-57
2021/04/29 05:56:38;;;;;;;11.55;6.67;;;;;;;11.48;90.31;101149.39;1745107;80;21214;-55
2021/04/29 05:59:05;;;;;;;9.28;5.95;;;;;;;11.53;90.12;101139.38;1777462;80;21043;-56
2021/04/29 06:01:34;;;;;;;12.85;6.75;;;;;;;11.62;90.04;101140.43;1777360;80;21066;-56
2021/04/29 06:04:03;;;;;;;13.55;5.90;;;;;;;11.68;89.20;101141.56;1754875;81;21701;-56
2021/04/29 06:06:32;;;;;;;11.70;5.62;;;;;;;11.66;88.79;101138.05;1771391;81;21566;-56
2021/04/29 06:08:59;;;;;;;8.95;5.37;;;;;;;11.65;88.83;101143.01;1754998;81;21133;-56
2021/04/29 06:11:27;;;;;;;16.62;6.03;;;;;;;11.67;88.42;101136.22;1771326;81;21064;-55
2021/04/29 06:13:56;;;;;;;14.65;6.67;;;;;;;11.67;87.86;101139.80;1754999;81;21108;-55
2021/04/29 06:16:23;;;;;;;11.30;6.37;;;;;;;11.66;87.55;101139.84;1771465;81;21186;-56
2021/04/29 06:18:53;;;;;;;11.65;6.15;;;;;;;11.67;87.41;101134.43;1754835;81;21133;-56
2021/04/29 06:21:24;;;;;;;12.60;6.22;;;;;;;11.67;87.23;101139.80;1771444;80;21130;-55
2021/04/29 06:23:56;;;;;;;12.07;5.50;;;;;;;11.68;87.13;101136.64;1755064;81;21090;-55
2021/04/29 06:26:24;;;;;;;11.68;6.08;;;;;;;11.72;86.43;101129.77;1772317;80;21174;-57
2021/04/29 06:28:52;;;;;;;13.65;7.50;;;;;;;11.75;86.09;101132.36;1760392;81;22126;-56
2021/04/29 06:31:19;;;;;;;13.95;6.95;;;;;;;11.80;86.07;101129.97;1772101;80;21097;-57
2021/04/29 06:33:47;;;;;;;9.38;6.40;;;;;;;11.83;86.32;101123.18;1789599;80;21600;-57
2021/04/29 06:36:15;;;;;;;13.90;6.62;;;;;;;11.82;85.78;101134.82;1789246;80;21144;-57
2021/04/29 06:38:48;;;;;;;8.98;6.37;;;;;;;11.82;85.31;101132.14;1780500;80;21068;-56
2021/04/29 06:41:18;;;;;;;13.18;6.78;;;;;;;11.83;84.92;101128.55;1769980;80;21144;-56
2021/04/29 06:43:45;;;;;;;10.95;6.83;;;;;;;11.85;84.66;101121.31;1758352;81;21172;-56
2021/04/29 06:46:15;;;;;;;11.57;6.92;;;;;;;11.88;84.44;101138.67;1757822;81;21746;-56
2021/04/29 06:48:53;;;;;;;10.80;6.35;;;;;;;11.89;83.76;101129.67;1758106;81;21066;-56
2021/04/29 06:51:20;;;;;;;9.05;6.22;;;;;;;11.91;82.75;101134.53;1762476;80;21516;-57
2021/04/29 06:53:50;;;;;;;10.25;6.05;;;;;;;11.94;82.05;101140.27;1755669;80;21547;-55
2021/04/29 06:56:18;;;;;;;10.58;6.35;;;;;;;11.94;81.64;101139.79;1759237;80;21195;-56
2021/04/29 06:58:47;;;;;;;12.45;7.35;;;;;;;11.93;81.95;101130.42;1784428;80;21078;-56
2021/04/29 07:01:14;;;;;;;14.87;6.85;;;;;;;11.93;82.17;101129.08;1789480;80;21041;-57
2021/04/29 07:03:43;;;;;;;8.40;6.00;;;;;;;12.00;82.19;101133.33;1788745;80;21227;-56
2021/04/29 07:06:10;;;;;;;10.43;6.33;;;;;;;12.10;81.91;101128.55;1777588;78;23051;-55
2021/04/29 07:08:39;;;;;;;10.40;6.35;;;;;;;12.19;81.20;101147.02;1763450;80;21148;-56
2021/04/29 07:11:07;;;;;;;9.48;6.15;;;;;;;12.25;80.91;101144.11;1758214;81;21109;-56
2021/04/29 07:13:35;;;;;;;9.15;6.20;;;;;;;12.28;80.80;101150.75;1770119;80;21172;-58
2021/04/29 07:16:04;;;;;;;10.03;5.55;;;;;;;12.32;80.33;101148.36;1773448;80;21140;-51
2021/04/29 07:18:32;;;;;;;13.83;5.42;;;;;;;12.40;79.99;101142.70;1769331;80;21992;-51
2021/04/29 07:21:02;;;;;;;10.48;5.90;;;;;;;12.46;79.46;101141.13;1771682;80;21564;-51
2021/04/29 07:23:29;;;;;;;11.40;6.47;;;;;;;12.57;79.31;101146.56;1775330;80;21196;-52
2021/04/29 07:25:57;;;;;;;9.68;5.72;;;;;;;12.69;78.11;101157.33;1789269;80;21144;-50
2021/04/29 07:28:27;;;;;;;9.28;6.10;;;;;;;12.73;77.11;101163.03;1790262;80;21037;-50
2021/04/29 07:30:55;;;;;;;8.63;5.40;;;;;;;12.76;76.29;101157.53;1780406;80;21190;-59
2021/04/29 07:33:22;;;;;;;7.53;5.10;;;;;;;12.73;75.57;101146.41;1758955;81;21085;-57
2021/04/29 07:35:51;;;;;;;10.63;5.60;;;;;;;12.73;75.25;101149.58;1758973;81;21128;-57
2021/04/29 07:38:18;;;;;;;9.10;5.40;;;;;;;12.68;75.37;101148.85;1764739;80;21159;-59
2021/04/29 07:40:46;;;;;;;11.40;5.33;;;;;;;12.66;75.48;101146.69;1781284;80;21108;-56
2021/04/29 07:43:14;;;;;;;12.73;6.12;;;;;;;12.65;75.69;101153.90;1782076;80;21588;-58
2021/04/29 07:45:43;;;;;;;10.95;5.70;;;;;;;12.58;75.94;101147.86;1762665;80;21603;-57
2021/04/29 07:48:11;;;;;;;9.23;5.65;;;;;;;12.52;76.36;101149.44;1758403;81;21172;-58
2021/04/29 07:50:39;;;;;;;9.53;5.42;;;;;;;12.50;76.90;101146.39;1758480;81;21156;-57
2021/04/29 07:53:08;;;;;;;7.78;5.72;;;;;;;12.53;77.20;101144.47;1758417;81;21132;-57
2021/04/29 07:55:37;;;;;;;10.43;5.47;;;;;;;12.57;77.42;101148.80;1758907;80;21478;-59
2021/04/29 07:58:08;;;;;;;11.05;5.62;;;;;;;12.66;77.13;101145.34;1779000;80;21068;-58
2021/04/29 08:00:37;;;;;;;11.75;5.10;;;;;;;12.66;76.97;101146.23;1766557;80;21197;-58
2021/04/29 08:03:05;;;;;;;11.53;5.78;;;;;;;12.64;76.83;101148.56;1789570;80;21077;-58
2021/04/29 08:05:34;;;;;;;11.33;5.85;;;;;;;12.65;76.62;101153.00;1784019;80;21053;-68
2021/04/29 08:08:02;;;;;;;12.55;6.08;;;;;;;12.66;75.94;101146.69;1758181;81;21209;-60
2021/04/29 08:10:30;;;;;;;10.13;5.92;;;;;;;12.63;76.36;101144.12;1783810;80;21160;-57
2021/04/29 08:12:57;;;;;;;12.90;5.83;;;;;;;12.69;76.04;101142.53;1789455;80;21605;-59
2021/04/29 08:15:26;;;;;;;9.08;5.50;;;;;;;12.79;76.07;101150.68;1789390;80;21556;-57
2021/04/29 08:17:55;;;;;;;17.70;6.00;;;;;;;12.87;75.94;101144.53;1789546;80;21371;-57
2021/04/29 08:20:23;;;;;;;11.05;5.65;;;;;;;12.95;75.52;101158.18;1789253;80;21837;-56
2021/04/29 08:22:51;;;;;;;13.60;5.70;;;;;;;12.98;75.25;101160.27;1788644;80;21164;-56
2021/04/29 08:25:20;;;;;;;11.93;7.05;;;;;;;13.00;74.93;101156.18;1789180;80;21136;-55
2021/04/29 08:27:48;;;;;;;13.18;6.22;;;;;;;12.99;74.89;101142.31;1784410;80;21577;-55
2021/04/29 08:30:17;;;;;;;8.88;5.90;;;;;;;13.04;74.35;101145.70;1782012;80;21447;-55
2021/04/29 08:32:45;;;;;;;11.12;6.62;;;;;;;13.08;73.59;101133.87;1781891;80;21321;-56
2021/04/29 08:35:13;;;;;;;14.20;6.70;;;;;;;13.11;73.69;101148.55;1781437;80;21037;-55
2021/04/29 08:37:41;;;;;;;14.13;6.17;;;;;;;13.21;73.52;101141.47;1779681;80;21561;-56
2021/04/29 08:40:12;;;;;;;16.60;6.72;;;;;;;13.28;73.63;101141.63;1765976;81;21548;-55
2021/04/29 08:42:43;;;;;;;19.75;6.83;;;;;;;13.37;72.91;101137.20;1796681;79;21150;-56
2021/04/29 08:45:13;;;;;;;13.45;7.12;;;;;;;13.39;72.06;101139.84;1788770;79;21189;-56
2021/04/29 08:47:41;;;;;;;13.80;6.83;;;;;;;13.41;72.24;101148.28;1788123;80;21637;-55
2021/04/29 08:50:11;;;;;;;11.35;6.00;;;;;;;13.45;71.92;101145.00;1786840;80;21547;-56
2021/04/29 08:52:39;;;;;;;14.85;6.37;;;;;;;13.45;71.99;101139.16;1785674;78;21125;-55
2021/04/29 08:55:09;;;;;;;11.12;6.20;;;;;;;13.49;71.69;101137.23;1789404;80;21581;-57
2021/04/29 08:57:37;;;;;;;10.68;6.87;;;;;;;13.47;71.56;101145.81;1791879;80;21360;-56
2021/04/29 09:00:06;;;;;;;9.40;6.65;;;;;;;13.44;71.71;101143.25;1760894;81;21189;-57
2021/04/29 09:02:35;;;;;;;13.68;6.62;;;;;;;13.43;72.21;101143.73;1773174;80;21497;-56
2021/04/29 09:05:19;;;;;;;13.18;6.58;;;;;;;13.52;72.38;101144.28;1757262;79;21541;-57
2021/04/29 09:08:06;;;;;;;11.25;6.67;;;;;;;13.56;72.09;101139.17;1781921;80;21030;-56
2021/04/29 09:10:42;;;;;;;13.08;5.35;;;;;;;13.62;71.85;101141.64;1781943;80;21419;-55
2021/04/29 09:13:17;;;;;;;10.63;6.62;;;;;;;13.66;71.84;101155.38;1781945;80;21022;-55
2021/04/29 09:15:45;;;;;;;10.88;6.62;;;;;;;13.65;71.51;101136.11;1782096;80;21133;-55
2021/04/29 09:18:15;;;;;;;9.78;6.45;;;;;;;13.63;71.60;101142.50;1781950;80;21085;-55
2021/04/29 09:20:57;;;;;;;7.62;6.25;;;;;;;13.63;71.42;101140.70;1782068;80;21058;-55
2021/04/29 09:23:28;;;;;;;11.05;7.00;;;;;;;13.58;71.35;101134.59;1780614;80;49444;-56
2021/04/29 09:26:04;;;;;;;11.08;6.95;;;;;;;13.56;71.47;101131.09;1771820;80;21201;-56
2021/04/29 09:28:40;;;;;;;11.50;6.45;;;;;;;13.58;71.63;101139.98;1771606;80;21168;-56
2021/04/29 09:31:15;;;;;;;11.65;7.05;;;;;;;13.60;71.70;101136.79;1757291;80;21171;-55
2021/04/29 09:33:52;;;;;;;10.38;6.15;;;;;;;13.63;71.50;101133.95;1755122;81;21141;-56
2021/04/29 09:36:30;;;;;;;11.73;6.75;;;;;;;13.65;71.42;101130.73;1770629;80;21178;-56
2021/04/29 09:39:11;;;;;;;8.58;6.67;;;;;;;13.69;71.70;101135.05;1756579;81;21109;-55
2021/04/29 09:41:46;;;;;;;9.05;6.45;;;;;;;13.77;71.78;101139.22;1776992;80;21562;-57
2021/04/29 09:44:17;;;;;;;9.48;6.62;;;;;;;13.89;71.48;101137.36;1762890;80;21117;-56
2021/04/29 09:46:51;;;;;;;10.88;6.60;;;;;;;14.00;71.21;101145.85;1775593;80;21065;-56
2021/04/29 09:49:33;;;;;;;9.55;6.97;;;;;;;14.06;70.87;101147.91;1775239;80;21205;-55
2021/04/29 09:52:04;;;;;;;10.85;7.37;;;;;;;14.07;69.58;101159.09;1761537;79;21116;-55
2021/04/29 09:54:39;;;;;;;13.58;6.45;;;;;;;14.00;69.61;101147.20;1769751;80;21161;-55
2021/04/29 09:57:09;;;;;;;13.05;7.33;;;;;;;13.98;69.57;101147.73;1762953;80;21042;-55
2021/04/29 09:59:43;;;;;;;10.43;7.00;;;;;;;13.97;69.59;101156.77;1764096;80;21101;-55
2021/04/29 10:02:11;;;;;;;10.03;6.70;;;;;;;14.01;69.63;101153.48;1765125;80;21573;-55
2021/04/29 10:04:39;;;;;;;11.40;6.37;;;;;;;14.09;69.60;101156.71;1763055;80;21525;-55
2021/04/29 10:07:08;;;;;;;14.30;6.85;;;;;;;14.16;68.75;101154.63;1770970;79;21177;-55
2021/04/29 10:09:39;;;;;;;8.93;6.72;;;;;;;14.18;68.84;101158.13;1758589;80;21572;-55
2021/04/29 10:12:11;;;;;;;9.98;6.60;;;;;;;14.22;68.80;101154.35;1735295;80;21129;-56
2021/04/29 10:14:48;;;;;;;12.47;7.12;;;;;;;14.25;68.43;101153.35;1762681;80;21200;-56
2021/04/29 10:17:17;;;;;;;10.93;6.75;;;;;;;14.22;68.66;101148.96;1764045;80;21501;-54
2021/04/29 10:19:49;;;;;;;9.80;6.47;;;;;;;14.21;68.74;101149.91;1760391;80;21564;-55
2021/04/29 10:22:17;;;;;;;10.50;7.05;;;;;;;14.19;68.58;101157.19;1754988;80;21169;-55
2021/04/29 10:24:47;;;;;;;13.53;8.00;;;;;;;14.12;68.81;101156.58;1758327;80;21137;-55
2021/04/29 10:27:25;;;;;;;10.88;6.87;;;;;;;14.11;68.95;101158.86;1758133;79;21195;-56
2021/04/29 10:30:08;;;;;;;10.05;6.62;;;;;;;14.13;68.53;101156.98;1819212;78;28226;-56
2021/04/29 10:32:36;;;;;;;13.65;6.70;;;;;;;13.96;68.85;101148.28;1794951;78;20995;-56
2021/04/29 10:35:20;;;;;;;13.72;7.33;;;;;;;13.87;68.98;101145.50;1789013;78;22432;-57
2021/04/29 10:38:01;;;;;;;12.33;7.15;;;;;;;13.77;69.46;101149.55;1733685;81;21016;-55
2021/04/29 10:40:38;;;;;;;9.43;7.08;;;;;;;13.66;70.08;101147.30;1774541;79;21046;-56
2021/04/29 10:43:06;;;;;;;10.82;7.03;;;;;;;13.57;70.63;101143.62;1815900;79;20987;-56
2021/04/29 10:45:34;;;;;;;9.95;7.08;;;;;;;13.43;71.21;101145.09;1816442;79;21149;-56
2021/04/29 10:48:06;;;;;;;9.83;7.03;;;;;;;13.32;71.64;101149.98;1816800;79;21190;-56
2021/04/29 10:50:45;;;;;;;9.75;7.47;;;;;;;13.24;72.14;101144.03;1815806;79;21201;-56
2021/04/29 10:53:14;;;;;;;10.40;6.70;;;;;;;13.17;72.51;101144.29;1815714;78;21472;-57
2021/04/29 10:55:44;;;;;;;8.90;6.58;;;;;;;13.06;72.91;101149.20;1816591;79;21154;-57
2021/04/29 10:58:24;;;;;;;10.13;6.78;;;;;;;12.95;73.29;101145.58;1790426;78;21144;-56
2021/04/29 11:01:12;;;;;;;11.38;6.83;;;;;;;12.84;73.98;101141.96;1784760;80;21401;-55
2021/04/29 11:03:48;;;;;;;12.00;7.72;;;;;;;12.80;74.75;101141.67;1784624;80;21069;-57
2021/04/29 11:06:17;;;;;;;11.60;7.17;;;;;;;12.79;75.02;101138.58;1784727;80;21126;-55
2021/04/29 11:08:51;;;;;;;9.70;6.90;;;;;;;12.73;75.04;101136.13;1784584;79;21661;-56
2021/04/29 11:11:34;;;;;;;9.65;6.78;;;;;;;12.65;75.74;101140.45;1784622;80;21106;-55
2021/04/29 11:14:06;;;;;;;9.70;6.37;;;;;;;12.59;75.95;101137.96;1784332;80;21204;-56
2021/04/29 11:16:52;;;;;;;12.73;7.70;;;;;;;12.63;76.29;101134.70;1784114;79;21170;-57
2021/04/29 11:19:42;;;;;;;11.73;7.67;;;;;;;12.64;75.91;101129.73;1794481;79;21055;-56
2021/04/29 11:22:25;;;;;;;10.30;7.47;;;;;;;12.65;76.15;101135.52;1751828;80;21133;-55
2021/04/29 11:24:54;;;;;;;12.07;7.47;;;;;;;12.66;76.03;101131.89;1727641;80;21138;-55
2021/04/29 11:27:34;;;;;;;12.53;7.00;;;;;;;12.64;76.20;101129.73;1749703;82;21244;-55
2021/04/29 11:30:12;;;;;;;12.13;7.55;;;;;;;12.61;76.04;101131.61;1757025;80;21569;-55
2021/04/29 11:32:42;;;;;;;8.68;6.95;;;;;;;12.56;76.18;101130.02;1721120;81;21111;-55
2021/04/29 11:35:20;;;;;;;12.03;8.18;;;;;;;12.48;76.59;101128.95;1721238;83;21102;-55